sensor_id;sensor_type;location;lat;lon;timestamp;P1;durP1;ratioP1;P2;durP2;ratioP2
32393;SDS011;18853;45.426;9.206;2023-09-08T00:02:26;9.65;;;6.38;;
32393;SDS011;18853;45.426;9.206;2023-09-08T00:04:53;10.70;;;7.07;;
32393;SDS011;18853;45.426;9.206;2023-09-08T00:07:19;9.23;;;6.53;;
32393;SDS011;18853;45.426;9.206;2023-09-08T00:09:45;9.35;;;6.78;;
32393;SDS011;18853;45.426;9.206;2023-09-08T00:12:10;13.10;;;7.53;;
32393;SDS011;18853;45.426;9.206;2023-09-08T00:14:36;10.05;;;6.60;;
32393;SDS011;18853;45.426;9.206;2023-09-08T00:17:02;11.77;;;6.70;;
32393;SDS011;18853;45.426;9.206;2023-09-08T00:19:29;9.13;;;6.55;;
32393;SDS011;18853;45.426;9.206;2023-09-08T00:21:55;10.73;;;6.97;;
32393;SDS011;18853;45.426;9.206;2023-09-08T00:24:21;8.38;;;6.53;;
32393;SDS011;18853;45.426;9.206;2023-09-08T00:26:47;9.98;;;6.13;;
32393;SDS011;18853;45.426;9.206;2023-09-08T00:29:13;8.57;;;6.25;;
32393;SDS011;18853;45.426;9.206;2023-09-08T00:31:39;8.98;;;5.90;;
32393;SDS011;18853;45.426;9.206;2023-09-08T00:34:05;9.75;;;6.70;;
32393;SDS011;18853;45.426;9.206;2023-09-08T00:36:31;9.77;;;6.47;;
32393;SDS011;18853;45.426;9.206;2023-09-08T00:38:57;10.55;;;6.88;;
32393;SDS011;18853;45.426;9.206;2023-09-08T00:41:23;11.60;;;6.72;;
32393;SDS011;18853;45.426;9.206;2023-09-08T00:43:49;10.25;;;6.50;;
32393;SDS011;18853;45.426;9.206;2023-09-08T00:46:15;10.95;;;6.07;;
32393;SDS011;18853;45.426;9.206;2023-09-08T00:48:42;9.98;;;6.78;;
32393;SDS011;18853;45.426;9.206;2023-09-08T00:51:08;9.75;;;7.22;;
32393;SDS011;18853;45.426;9.206;2023-09-08T00:53:35;14.07;;;7.10;;
32393;SDS011;18853;45.426;9.206;2023-09-08T00:56:01;10.60;;;6.32;;
32393;SDS011;18853;45.426;9.206;2023-09-08T00:58:28;11.48;;;6.55;;
32393;SDS011;18853;45.426;9.206;2023-09-08T01:00:54;15.43;;;6.00;;
32393;SDS011;18853;45.426;9.206;2023-09-08T01:03:22;9.23;;;5.88;;
32393;SDS011;18853;45.426;9.206;2023-09-08T01:05:48;11.05;;;6.65;;
32393;SDS011;18853;45.426;9.206;2023-09-08T01:08:15;11.07;;;6.22;;
32393;SDS011;18853;45.426;9.206;2023-09-08T01:10:42;10.30;;;6.53;;
32393;SDS011;18853;45.426;9.206;2023-09-08T01:13:08;9.18;;;6.10;;
32393;SDS011;18853;45.426;9.206;2023-09-08T01:15:34;9.45;;;6.45;;
32393;SDS011;18853;45.426;9.206;2023-09-08T01:18:00;8.15;;;5.70;;
32393;SDS011;18853;45.426;9.206;2023-09-08T01:20:27;11.63;;;6.15;;
32393;SDS011;18853;45.426;9.206;2023-09-08T01:23:18;10.30;;;7.18;;
32393;SDS011;18853;45.426;9.206;2023-09-08T01:26:07;8.35;;;5.97;;
32393;SDS011;18853;45.426;9.206;2023-09-08T01:28:35;9.40;;;6.50;;
32393;SDS011;18853;45.426;9.206;2023-09-08T01:31:02;8.77;;;6.20;;
32393;SDS011;18853;45.426;9.206;2023-09-08T01:33:29;9.60;;;6.30;;
32393;SDS011;18853;45.426;9.206;2023-09-08T01:35:55;7.80;;;6.05;;
32393;SDS011;18853;45.426;9.206;2023-09-08T01:38:21;9.15;;;5.60;;
32393;SDS011;18853;45.426;9.206;2023-09-08T01:40:48;7.97;;;6.03;;
32393;SDS011;18853;45.426;9.206;2023-09-08T01:43:14;7.68;;;6.30;;
32393;SDS011;18853;45.426;9.206;2023-09-08T01:45:39;9.30;;;6.00;;
32393;SDS011;18853;45.426;9.206;2023-09-08T01:48:05;13.00;;;6.40;;
32393;SDS011;18853;45.426;9.206;2023-09-08T01:50:31;11.27;;;6.20;;
32393;SDS011;18853;45.426;9.206;2023-09-08T01:52:57;9.43;;;6.20;;
32393;SDS011;18853;45.426;9.206;2023-09-08T01:55:22;7.07;;;6.18;;
32393;SDS011;18853;45.426;9.206;2023-09-08T01:57:48;9.52;;;6.05;;
32393;SDS011;18853;45.426;9.206;2023-09-08T02:00:14;9.70;;;6.72;;
32393;SDS011;18853;45.426;9.206;2023-09-08T02:02:40;10.25;;;5.90;;
32393;SDS011;18853;45.426;9.206;2023-09-08T02:05:06;10.95;;;7.30;;
32393;SDS011;18853;45.426;9.206;2023-09-08T02:07:32;10.30;;;5.90;;
32393;SDS011;18853;45.426;9.206;2023-09-08T02:09:58;9.45;;;6.03;;
32393;SDS011;18853;45.426;9.206;2023-09-08T02:12:24;10.18;;;6.53;;
32393;SDS011;18853;45.426;9.206;2023-09-08T02:14:49;10.95;;;6.40;;
32393;SDS011;18853;45.426;9.206;2023-09-08T02:17:17;8.27;;;6.53;;
32393;SDS011;18853;45.426;9.206;2023-09-08T02:19:42;11.52;;;6.75;;
32393;SDS011;18853;45.426;9.206;2023-09-08T02:22:08;10.48;;;6.85;;
32393;SDS011;18853;45.426;9.206;2023-09-08T02:24:34;10.73;;;7.18;;
32393;SDS011;18853;45.426;9.206;2023-09-08T02:27:00;9.63;;;7.00;;
32393;SDS011;18853;45.426;9.206;2023-09-08T02:29:25;11.18;;;7.53;;
32393;SDS011;18853;45.426;9.206;2023-09-08T02:31:51;12.98;;;6.90;;
32393;SDS011;18853;45.426;9.206;2023-09-08T02:34:17;8.82;;;7.38;;
32393;SDS011;18853;45.426;9.206;2023-09-08T02:36:42;10.05;;;7.25;;
32393;SDS011;18853;45.426;9.206;2023-09-08T02:39:08;14.23;;;7.10;;
32393;SDS011;18853;45.426;9.206;2023-09-08T02:41:35;11.73;;;7.35;;
32393;SDS011;18853;45.426;9.206;2023-09-08T02:44:01;13.07;;;7.40;;
32393;SDS011;18853;45.426;9.206;2023-09-08T02:46:27;14.90;;;7.63;;
32393;SDS011;18853;45.426;9.206;2023-09-08T02:48:53;11.15;;;7.25;;
32393;SDS011;18853;45.426;9.206;2023-09-08T02:51:18;11.25;;;7.28;;
32393;SDS011;18853;45.426;9.206;2023-09-08T02:53:44;10.88;;;7.38;;
32393;SDS011;18853;45.426;9.206;2023-09-08T02:56:09;9.45;;;6.70;;
32393;SDS011;18853;45.426;9.206;2023-09-08T02:58:35;9.73;;;7.07;;
32393;SDS011;18853;45.426;9.206;2023-09-08T03:01:11;12.45;;;7.82;;
32393;SDS011;18853;45.426;9.206;2023-09-08T03:03:41;11.68;;;8.70;;
32393;SDS011;18853;45.426;9.206;2023-09-08T03:06:07;11.68;;;7.63;;
32393;SDS011;18853;45.426;9.206;2023-09-08T03:08:34;10.10;;;7.07;;
32393;SDS011;18853;45.426;9.206;2023-09-08T03:11:02;11.32;;;8.05;;
32393;SDS011;18853;45.426;9.206;2023-09-08T03:13:29;12.05;;;9.00;;
32393;SDS011;18853;45.426;9.206;2023-09-08T03:15:55;11.95;;;7.95;;
32393;SDS011;18853;45.426;9.206;2023-09-08T03:18:21;11.85;;;8.30;;
32393;SDS011;18853;45.426;9.206;2023-09-08T03:20:48;15.27;;;7.90;;
32393;SDS011;18853;45.426;9.206;2023-09-08T03:23:14;10.93;;;8.15;;
32393;SDS011;18853;45.426;9.206;2023-09-08T03:25:40;14.20;;;8.60;;
32393;SDS011;18853;45.426;9.206;2023-09-08T03:28:06;13.85;;;8.52;;
32393;SDS011;18853;45.426;9.206;2023-09-08T03:30:32;12.10;;;7.82;;
32393;SDS011;18853;45.426;9.206;2023-09-08T03:32:58;13.82;;;9.45;;
32393;SDS011;18853;45.426;9.206;2023-09-08T03:35:23;15.52;;;9.60;;
32393;SDS011;18853;45.426;9.206;2023-09-08T03:37:49;16.13;;;9.13;;
32393;SDS011;18853;45.426;9.206;2023-09-08T03:40:14;13.40;;;8.77;;
32393;SDS011;18853;45.426;9.206;2023-09-08T03:42:40;13.00;;;8.57;;
32393;SDS011;18853;45.426;9.206;2023-09-08T03:45:07;15.50;;;8.80;;
32393;SDS011;18853;45.426;9.206;2023-09-08T03:47:33;11.95;;;8.65;;
32393;SDS011;18853;45.426;9.206;2023-09-08T03:49:59;11.43;;;8.10;;
32393;SDS011;18853;45.426;9.206;2023-09-08T03:52:24;11.90;;;8.20;;
32393;SDS011;18853;45.426;9.206;2023-09-08T03:54:50;15.57;;;9.40;;
32393;SDS011;18853;45.426;9.206;2023-09-08T03:57:16;15.40;;;10.30;;
32393;SDS011;18853;45.426;9.206;2023-09-08T03:59:41;12.48;;;9.35;;
32393;SDS011;18853;45.426;9.206;2023-09-08T04:02:07;11.98;;;8.70;;
32393;SDS011;18853;45.426;9.206;2023-09-08T04:04:33;11.05;;;8.65;;
32393;SDS011;18853;45.426;9.206;2023-09-08T04:06:58;13.30;;;9.20;;
32393;SDS011;18853;45.426;9.206;2023-09-08T04:09:24;14.95;;;9.35;;
32393;SDS011;18853;45.426;9.206;2023-09-08T04:11:50;11.65;;;9.07;;
32393;SDS011;18853;45.426;9.206;2023-09-08T04:14:15;12.93;;;9.15;;
32393;SDS011;18853;45.426;9.206;2023-09-08T04:16:41;13.07;;;9.65;;
32393;SDS011;18853;45.426;9.206;2023-09-08T04:19:07;13.30;;;9.45;;
32393;SDS011;18853;45.426;9.206;2023-09-08T04:21:32;15.85;;;10.07;;
32393;SDS011;18853;45.426;9.206;2023-09-08T04:23:58;14.80;;;9.68;;
32393;SDS011;18853;45.426;9.206;2023-09-08T04:26:24;189.52;;;144.00;;
32393;SDS011;18853;45.426;9.206;2023-09-08T04:28:50;175.98;;;139.45;;
32393;SDS011;18853;45.426;9.206;2023-09-08T04:31:15;59.65;;;45.97;;
32393;SDS011;18853;45.426;9.206;2023-09-08T04:33:43;58.22;;;39.17;;
32393;SDS011;18853;45.426;9.206;2023-09-08T04:36:08;44.90;;;33.13;;
32393;SDS011;18853;45.426;9.206;2023-09-08T04:38:36;25.58;;;20.60;;
32393;SDS011;18853;45.426;9.206;2023-09-08T04:41:01;24.75;;;17.17;;
32393;SDS011;18853;45.426;9.206;2023-09-08T04:43:27;19.52;;;12.80;;
32393;SDS011;18853;45.426;9.206;2023-09-08T04:45:53;24.75;;;17.33;;
32393;SDS011;18853;45.426;9.206;2023-09-08T04:48:18;20.23;;;14.40;;
32393;SDS011;18853;45.426;9.206;2023-09-08T04:50:44;19.80;;;13.52;;
32393;SDS011;18853;45.426;9.206;2023-09-08T04:53:10;18.88;;;13.10;;
32393;SDS011;18853;45.426;9.206;2023-09-08T04:55:35;18.33;;;12.55;;
32393;SDS011;18853;45.426;9.206;2023-09-08T04:58:01;15.45;;;12.00;;
32393;SDS011;18853;45.426;9.206;2023-09-08T05:00:27;15.85;;;11.57;;
32393;SDS011;18853;45.426;9.206;2023-09-08T05:02:52;18.02;;;12.05;;
32393;SDS011;18853;45.426;9.206;2023-09-08T05:05:18;14.95;;;10.95;;
32393;SDS011;18853;45.426;9.206;2023-09-08T05:07:44;16.67;;;10.57;;
32393;SDS011;18853;45.426;9.206;2023-09-08T05:10:10;14.40;;;10.57;;
32393;SDS011;18853;45.426;9.206;2023-09-08T05:12:36;16.92;;;10.65;;
32393;SDS011;18853;45.426;9.206;2023-09-08T05:15:02;14.35;;;10.15;;
32393;SDS011;18853;45.426;9.206;2023-09-08T05:17:35;13.57;;;10.25;;
32393;SDS011;18853;45.426;9.206;2023-09-08T05:20:01;15.57;;;10.65;;
32393;SDS011;18853;45.426;9.206;2023-09-08T05:22:27;19.63;;;13.90;;
32393;SDS011;18853;45.426;9.206;2023-09-08T05:24:53;18.65;;;16.15;;
32393;SDS011;18853;45.426;9.206;2023-09-08T05:27:18;25.10;;;14.48;;
32393;SDS011;18853;45.426;9.206;2023-09-08T05:29:44;22.90;;;13.65;;
32393;SDS011;18853;45.426;9.206;2023-09-08T05:32:10;19.20;;;13.05;;
32393;SDS011;18853;45.426;9.206;2023-09-08T05:34:35;17.80;;;12.18;;
32393;SDS011;18853;45.426;9.206;2023-09-08T05:37:01;18.25;;;11.35;;
32393;SDS011;18853;45.426;9.206;2023-09-08T05:39:27;15.98;;;11.63;;
32393;SDS011;18853;45.426;9.206;2023-09-08T05:41:53;18.40;;;11.63;;
32393;SDS011;18853;45.426;9.206;2023-09-08T05:44:19;16.98;;;10.90;;
32393;SDS011;18853;45.426;9.206;2023-09-08T05:46:45;14.45;;;11.10;;
32393;SDS011;18853;45.426;9.206;2023-09-08T05:49:11;15.90;;;11.77;;
32393;SDS011;18853;45.426;9.206;2023-09-08T05:51:36;14.40;;;10.57;;
32393;SDS011;18853;45.426;9.206;2023-09-08T05:54:02;15.60;;;10.32;;
32393;SDS011;18853;45.426;9.206;2023-09-08T05:56:31;14.55;;;10.68;;
32393;SDS011;18853;45.426;9.206;2023-09-08T05:58:57;21.70;;;12.20;;
32393;SDS011;18853;45.426;9.206;2023-09-08T06:01:23;15.52;;;11.52;;
32393;SDS011;18853;45.426;9.206;2023-09-08T06:03:49;16.17;;;11.38;;
32393;SDS011;18853;45.426;9.206;2023-09-08T06:06:15;21.05;;;13.63;;
32393;SDS011;18853;45.426;9.206;2023-09-08T06:08:40;17.30;;;13.40;;
32393;SDS011;18853;45.426;9.206;2023-09-08T06:11:06;20.10;;;16.00;;
32393;SDS011;18853;45.426;9.206;2023-09-08T06:13:32;22.35;;;14.80;;
32393;SDS011;18853;45.426;9.206;2023-09-08T06:15:58;22.80;;;15.32;;
32393;SDS011;18853;45.426;9.206;2023-09-08T06:18:24;19.85;;;15.18;;
32393;SDS011;18853;45.426;9.206;2023-09-08T06:20:52;23.65;;;15.52;;
32393;SDS011;18853;45.426;9.206;2023-09-08T06:23:19;19.25;;;15.25;;
32393;SDS011;18853;45.426;9.206;2023-09-08T06:25:46;21.17;;;16.92;;
32393;SDS011;18853;45.426;9.206;2023-09-08T06:28:11;27.20;;;18.55;;
32393;SDS011;18853;45.426;9.206;2023-09-08T06:30:37;19.35;;;16.30;;
32393;SDS011;18853;45.426;9.206;2023-09-08T06:33:06;21.88;;;16.75;;
32393;SDS011;18853;45.426;9.206;2023-09-08T06:35:33;27.05;;;18.65;;
32393;SDS011;18853;45.426;9.206;2023-09-08T06:37:59;21.83;;;17.05;;
32393;SDS011;18853;45.426;9.206;2023-09-08T06:40:25;23.23;;;17.45;;
32393;SDS011;18853;45.426;9.206;2023-09-08T06:42:51;27.17;;;18.85;;
32393;SDS011;18853;45.426;9.206;2023-09-08T06:45:16;18.75;;;16.73;;
32393;SDS011;18853;45.426;9.206;2023-09-08T06:47:42;19.35;;;17.25;;
32393;SDS011;18853;45.426;9.206;2023-09-08T06:50:09;22.27;;;18.15;;
32393;SDS011;18853;45.426;9.206;2023-09-08T06:52:35;22.67;;;17.10;;
32393;SDS011;18853;45.426;9.206;2023-09-08T06:55:00;20.35;;;17.13;;
32393;SDS011;18853;45.426;9.206;2023-09-08T06:57:26;24.65;;;17.15;;
32393;SDS011;18853;45.426;9.206;2023-09-08T06:59:52;18.48;;;15.38;;
32393;SDS011;18853;45.426;9.206;2023-09-08T07:02:17;16.52;;;12.50;;
32393;SDS011;18853;45.426;9.206;2023-09-08T07:04:43;16.13;;;11.60;;
32393;SDS011;18853;45.426;9.206;2023-09-08T07:07:09;16.45;;;14.10;;
32393;SDS011;18853;45.426;9.206;2023-09-08T07:09:35;18.40;;;11.35;;
32393;SDS011;18853;45.426;9.206;2023-09-08T07:12:04;17.48;;;11.95;;
32393;SDS011;18853;45.426;9.206;2023-09-08T07:14:31;18.40;;;12.85;;
32393;SDS011;18853;45.426;9.206;2023-09-08T07:16:57;13.18;;;10.98;;
32393;SDS011;18853;45.426;9.206;2023-09-08T07:19:23;13.93;;;10.45;;
32393;SDS011;18853;45.426;9.206;2023-09-08T07:21:49;17.20;;;10.90;;
32393;SDS011;18853;45.426;9.206;2023-09-08T07:24:14;15.23;;;11.00;;
32393;SDS011;18853;45.426;9.206;2023-09-08T07:26:40;12.52;;;9.52;;
32393;SDS011;18853;45.426;9.206;2023-09-08T07:29:06;17.60;;;10.48;;
32393;SDS011;18853;45.426;9.206;2023-09-08T07:31:31;14.27;;;10.60;;
32393;SDS011;18853;45.426;9.206;2023-09-08T07:33:57;15.05;;;10.23;;
32393;SDS011;18853;45.426;9.206;2023-09-08T07:36:23;15.00;;;10.05;;
32393;SDS011;18853;45.426;9.206;2023-09-08T07:38:48;17.50;;;9.63;;
32393;SDS011;18853;45.426;9.206;2023-09-08T07:41:14;13.93;;;9.48;;
32393;SDS011;18853;45.426;9.206;2023-09-08T07:43:40;19.23;;;9.43;;
32393;SDS011;18853;45.426;9.206;2023-09-08T07:46:08;13.45;;;8.77;;
32393;SDS011;18853;45.426;9.206;2023-09-08T07:48:34;13.63;;;8.18;;
32393;SDS011;18853;45.426;9.206;2023-09-08T07:51:00;11.45;;;8.30;;
32393;SDS011;18853;45.426;9.206;2023-09-08T07:53:26;10.70;;;7.72;;
32393;SDS011;18853;45.426;9.206;2023-09-08T07:55:52;11.50;;;7.63;;
32393;SDS011;18853;45.426;9.206;2023-09-08T07:58:18;16.35;;;7.78;;
32393;SDS011;18853;45.426;9.206;2023-09-08T08:00:43;12.00;;;7.75;;
32393;SDS011;18853;45.426;9.206;2023-09-08T08:03:09;13.48;;;7.32;;
32393;SDS011;18853;45.426;9.206;2023-09-08T08:05:35;11.68;;;6.95;;
32393;SDS011;18853;45.426;9.206;2023-09-08T08:08:01;10.77;;;6.85;;
32393;SDS011;18853;45.426;9.206;2023-09-08T08:10:26;8.00;;;6.20;;
32393;SDS011;18853;45.426;9.206;2023-09-08T08:12:52;9.38;;;6.55;;
32393;SDS011;18853;45.426;9.206;2023-09-08T08:15:18;8.82;;;5.68;;
32393;SDS011;18853;45.426;9.206;2023-09-08T08:17:46;7.75;;;5.45;;
32393;SDS011;18853;45.426;9.206;2023-09-08T08:20:12;8.32;;;4.88;;
32393;SDS011;18853;45.426;9.206;2023-09-08T08:22:43;8.30;;;5.60;;
32393;SDS011;18853;45.426;9.206;2023-09-08T08:25:10;8.75;;;5.20;;
32393;SDS011;18853;45.426;9.206;2023-09-08T08:27:37;7.97;;;5.40;;
32393;SDS011;18853;45.426;9.206;2023-09-08T08:30:04;8.77;;;5.28;;
32393;SDS011;18853;45.426;9.206;2023-09-08T08:32:30;7.60;;;4.90;;
32393;SDS011;18853;45.426;9.206;2023-09-08T08:34:56;11.15;;;5.13;;
32393;SDS011;18853;45.426;9.206;2023-09-08T08:37:22;9.38;;;5.00;;
32393;SDS011;18853;45.426;9.206;2023-09-08T08:39:48;9.15;;;5.32;;
32393;SDS011;18853;45.426;9.206;2023-09-08T08:42:13;11.57;;;4.95;;
32393;SDS011;18853;45.426;9.206;2023-09-08T08:44:39;7.85;;;4.85;;
32393;SDS011;18853;45.426;9.206;2023-09-08T08:47:06;10.10;;;5.60;;
32393;SDS011;18853;45.426;9.206;2023-09-08T08:49:33;9.02;;;5.07;;
32393;SDS011;18853;45.426;9.206;2023-09-08T08:52:00;8.60;;;5.13;;
32393;SDS011;18853;45.426;9.206;2023-09-08T08:54:32;9.95;;;5.45;;
32393;SDS011;18853;45.426;9.206;2023-09-08T08:57:03;7.45;;;5.13;;
32393;SDS011;18853;45.426;9.206;2023-09-08T08:59:30;7.22;;;5.50;;
32393;SDS011;18853;45.426;9.206;2023-09-08T09:01:56;7.57;;;5.05;;
32393;SDS011;18853;45.426;9.206;2023-09-08T09:04:23;9.93;;;5.78;;
32393;SDS011;18853;45.426;9.206;2023-09-08T09:06:50;8.30;;;5.90;;
32393;SDS011;18853;45.426;9.206;2023-09-08T09:09:17;9.48;;;6.10;;
32393;SDS011;18853;45.426;9.206;2023-09-08T09:11:44;9.07;;;5.75;;
32393;SDS011;18853;45.426;9.206;2023-09-08T09:14:10;7.28;;;5.68;;
32393;SDS011;18853;45.426;9.206;2023-09-08T09:16:39;8.82;;;5.18;;
32393;SDS011;18853;45.426;9.206;2023-09-08T09:19:09;9.40;;;5.38;;
32393;SDS011;18853;45.426;9.206;2023-09-08T09:21:43;8.68;;;5.97;;
32393;SDS011;18853;45.426;9.206;2023-09-08T09:24:29;7.88;;;5.45;;
32393;SDS011;18853;45.426;9.206;2023-09-08T09:27:00;10.15;;;6.32;;
32393;SDS011;18853;45.426;9.206;2023-09-08T09:29:26;9.40;;;5.45;;
32393;SDS011;18853;45.426;9.206;2023-09-08T09:31:54;10.90;;;6.25;;
32393;SDS011;18853;45.426;9.206;2023-09-08T09:34:22;9.13;;;6.57;;
32393;SDS011;18853;45.426;9.206;2023-09-08T09:36:48;10.30;;;6.13;;
32393;SDS011;18853;45.426;9.206;2023-09-08T09:39:21;7.90;;;6.13;;
32393;SDS011;18853;45.426;9.206;2023-09-08T09:41:49;8.65;;;6.13;;
32393;SDS011;18853;45.426;9.206;2023-09-08T09:44:19;8.88;;;5.10;;
32393;SDS011;18853;45.426;9.206;2023-09-08T09:46:46;10.27;;;7.35;;
32393;SDS011;18853;45.426;9.206;2023-09-08T09:49:12;8.90;;;7.03;;
32393;SDS011;18853;45.426;9.206;2023-09-08T09:51:40;10.13;;;7.07;;
32393;SDS011;18853;45.426;9.206;2023-09-08T09:54:07;13.85;;;7.88;;
32393;SDS011;18853;45.426;9.206;2023-09-08T09:56:34;9.85;;;7.22;;
32393;SDS011;18853;45.426;9.206;2023-09-08T09:59:02;7.80;;;5.82;;
32393;SDS011;18853;45.426;9.206;2023-09-08T10:01:29;8.27;;;6.00;;
32393;SDS011;18853;45.426;9.206;2023-09-08T10:03:54;9.68;;;5.88;;
32393;SDS011;18853;45.426;9.206;2023-09-08T10:06:21;8.52;;;5.38;;
32393;SDS011;18853;45.426;9.206;2023-09-08T10:08:47;8.25;;;5.93;;
32393;SDS011;18853;45.426;9.206;2023-09-08T10:11:13;8.23;;;5.20;;
32393;SDS011;18853;45.426;9.206;2023-09-08T10:13:42;7.03;;;5.63;;
32393;SDS011;18853;45.426;9.206;2023-09-08T10:16:12;8.15;;;4.97;;
32393;SDS011;18853;45.426;9.206;2023-09-08T10:18:41;10.35;;;5.57;;
32393;SDS011;18853;45.426;9.206;2023-09-08T10:21:11;11.25;;;5.93;;
32393;SDS011;18853;45.426;9.206;2023-09-08T10:23:49;7.65;;;5.47;;
32393;SDS011;18853;45.426;9.206;2023-09-08T10:26:18;6.47;;;5.47;;
32393;SDS011;18853;45.426;9.206;2023-09-08T10:28:47;9.32;;;5.30;;
32393;SDS011;18853;45.426;9.206;2023-09-08T10:31:13;8.45;;;5.68;;
32393;SDS011;18853;45.426;9.206;2023-09-08T10:33:40;7.07;;;5.07;;
32393;SDS011;18853;45.426;9.206;2023-09-08T10:36:07;7.18;;;5.13;;
32393;SDS011;18853;45.426;9.206;2023-09-08T10:38:34;6.97;;;5.10;;
32393;SDS011;18853;45.426;9.206;2023-09-08T10:46:23;7.38;;;4.93;;
32393;SDS011;18853;45.426;9.206;2023-09-08T10:48:52;8.25;;;4.85;;
32393;SDS011;18853;45.426;9.206;2023-09-08T10:51:28;9.15;;;5.00;;
32393;SDS011;18853;45.426;9.206;2023-09-08T10:53:54;6.88;;;4.80;;
32393;SDS011;18853;45.426;9.206;2023-09-08T10:56:26;9.73;;;5.47;;
32393;SDS011;18853;45.426;9.206;2023-09-08T10:59:13;6.57;;;5.18;;
32393;SDS011;18853;45.426;9.206;2023-09-08T11:01:39;8.95;;;5.53;;
32393;SDS011;18853;45.426;9.206;2023-09-08T11:04:06;7.43;;;4.95;;
32393;SDS011;18853;45.426;9.206;2023-09-08T11:06:35;7.93;;;4.60;;
32393;SDS011;18853;45.426;9.206;2023-09-08T11:09:08;6.35;;;5.00;;
32393;SDS011;18853;45.426;9.206;2023-09-08T11:11:34;8.02;;;5.10;;
32393;SDS011;18853;45.426;9.206;2023-09-08T11:14:02;7.53;;;4.95;;
32393;SDS011;18853;45.426;9.206;2023-09-08T11:16:28;7.75;;;5.25;;
32393;SDS011;18853;45.426;9.206;2023-09-08T11:18:56;6.18;;;4.30;;
32393;SDS011;18853;45.426;9.206;2023-09-08T11:21:22;7.68;;;4.68;;
32393;SDS011;18853;45.426;9.206;2023-09-08T11:23:48;6.22;;;4.43;;
32393;SDS011;18853;45.426;9.206;2023-09-08T11:26:14;6.50;;;4.60;;
32393;SDS011;18853;45.426;9.206;2023-09-08T11:28:40;8.00;;;4.90;;
32393;SDS011;18853;45.426;9.206;2023-09-08T11:31:07;5.55;;;4.43;;
32393;SDS011;18853;45.426;9.206;2023-09-08T11:33:33;6.50;;;4.93;;
32393;SDS011;18853;45.426;9.206;2023-09-08T11:36:10;6.65;;;5.00;;
32393;SDS011;18853;45.426;9.206;2023-09-08T11:38:38;7.20;;;4.90;;
32393;SDS011;18853;45.426;9.206;2023-09-08T11:41:05;9.55;;;4.80;;
32393;SDS011;18853;45.426;9.206;2023-09-08T11:43:31;10.25;;;5.22;;
32393;SDS011;18853;45.426;9.206;2023-09-08T11:45:59;9.95;;;5.65;;
32393;SDS011;18853;45.426;9.206;2023-09-08T11:48:25;6.45;;;5.10;;
32393;SDS011;18853;45.426;9.206;2023-09-08T11:50:54;7.45;;;5.13;;
32393;SDS011;18853;45.426;9.206;2023-09-08T11:53:20;7.78;;;5.53;;
32393;SDS011;18853;45.426;9.206;2023-09-08T11:55:47;9.55;;;5.03;;
32393;SDS011;18853;45.426;9.206;2023-09-08T11:58:14;6.90;;;5.07;;
32393;SDS011;18853;45.426;9.206;2023-09-08T12:00:40;9.65;;;6.15;;
32393;SDS011;18853;45.426;9.206;2023-09-08T12:03:13;7.20;;;5.45;;
32393;SDS011;18853;45.426;9.206;2023-09-08T12:05:40;7.22;;;4.72;;
32393;SDS011;18853;45.426;9.206;2023-09-08T12:08:07;10.45;;;6.00;;
32393;SDS011;18853;45.426;9.206;2023-09-08T12:10:42;8.27;;;5.80;;
32393;SDS011;18853;45.426;9.206;2023-09-08T12:18:05;8.48;;;5.60;;
32393;SDS011;18853;45.426;9.206;2023-09-08T12:20:31;12.60;;;5.53;;
32393;SDS011;18853;45.426;9.206;2023-09-08T12:23:01;7.53;;;5.53;;
32393;SDS011;18853;45.426;9.206;2023-09-08T12:25:28;8.48;;;5.25;;
32393;SDS011;18853;45.426;9.206;2023-09-08T12:27:56;8.75;;;5.60;;
32393;SDS011;18853;45.426;9.206;2023-09-08T12:30:23;11.45;;;5.93;;
32393;SDS011;18853;45.426;9.206;2023-09-08T12:32:57;8.07;;;6.18;;
32393;SDS011;18853;45.426;9.206;2023-09-08T12:35:24;10.73;;;5.97;;
32393;SDS011;18853;45.426;9.206;2023-09-08T12:40:24;11.98;;;5.35;;
32393;SDS011;18853;45.426;9.206;2023-09-08T12:42:51;8.95;;;5.45;;
32393;SDS011;18853;45.426;9.206;2023-09-08T12:45:17;7.40;;;5.20;;
32393;SDS011;18853;45.426;9.206;2023-09-08T12:47:43;7.43;;;5.47;;
32393;SDS011;18853;45.426;9.206;2023-09-08T12:50:09;8.75;;;5.50;;
32393;SDS011;18853;45.426;9.206;2023-09-08T12:52:35;7.13;;;5.80;;
32393;SDS011;18853;45.426;9.206;2023-09-08T12:55:01;9.80;;;5.15;;
32393;SDS011;18853;45.426;9.206;2023-09-08T12:57:26;6.85;;;5.10;;
32393;SDS011;18853;45.426;9.206;2023-09-08T12:59:52;8.75;;;5.53;;
32393;SDS011;18853;45.426;9.206;2023-09-08T13:02:18;8.85;;;5.88;;
32393;SDS011;18853;45.426;9.206;2023-09-08T13:04:44;7.60;;;6.03;;
32393;SDS011;18853;45.426;9.206;2023-09-08T13:07:13;8.80;;;5.10;;
32393;SDS011;18853;45.426;9.206;2023-09-08T13:09:40;7.95;;;5.57;;
32393;SDS011;18853;45.426;9.206;2023-09-08T13:12:05;7.05;;;5.15;;
32393;SDS011;18853;45.426;9.206;2023-09-08T13:14:31;6.95;;;5.32;;
32393;SDS011;18853;45.426;9.206;2023-09-08T13:16:57;8.98;;;6.90;;
32393;SDS011;18853;45.426;9.206;2023-09-08T13:19:23;10.15;;;5.45;;
32393;SDS011;18853;45.426;9.206;2023-09-08T13:21:48;7.38;;;4.95;;
32393;SDS011;18853;45.426;9.206;2023-09-08T13:24:14;12.25;;;6.00;;
32393;SDS011;18853;45.426;9.206;2023-09-08T13:26:39;8.40;;;5.80;;
32393;SDS011;18853;45.426;9.206;2023-09-08T13:29:05;8.15;;;5.82;;
32393;SDS011;18853;45.426;9.206;2023-09-08T13:31:31;8.95;;;6.07;;
32393;SDS011;18853;45.426;9.206;2023-09-08T13:33:56;8.77;;;5.47;;
32393;SDS011;18853;45.426;9.206;2023-09-08T13:36:22;8.98;;;6.00;;
32393;SDS011;18853;45.426;9.206;2023-09-08T13:38:48;12.00;;;5.78;;
32393;SDS011;18853;45.426;9.206;2023-09-08T13:41:13;6.75;;;5.20;;
32393;SDS011;18853;45.426;9.206;2023-09-08T13:43:39;7.68;;;5.43;;
32393;SDS011;18853;45.426;9.206;2023-09-08T13:46:04;8.32;;;5.88;;
32393;SDS011;18853;45.426;9.206;2023-09-08T13:48:30;9.02;;;5.97;;
32393;SDS011;18853;45.426;9.206;2023-09-08T13:51:00;8.82;;;4.90;;
32393;SDS011;18853;45.426;9.206;2023-09-08T13:53:27;9.90;;;5.18;;
32393;SDS011;18853;45.426;9.206;2023-09-08T13:55:53;7.18;;;4.95;;
32393;SDS011;18853;45.426;9.206;2023-09-08T13:58:19;9.10;;;5.63;;
32393;SDS011;18853;45.426;9.206;2023-09-08T14:00:45;8.32;;;5.25;;
32393;SDS011;18853;45.426;9.206;2023-09-08T14:03:10;12.57;;;5.30;;
32393;SDS011;18853;45.426;9.206;2023-09-08T14:05:36;10.77;;;5.97;;
32393;SDS011;18853;45.426;9.206;2023-09-08T14:08:02;7.95;;;5.53;;
32393;SDS011;18853;45.426;9.206;2023-09-08T14:10:27;7.93;;;5.57;;
32393;SDS011;18853;45.426;9.206;2023-09-08T14:12:53;8.82;;;5.15;;
32393;SDS011;18853;45.426;9.206;2023-09-08T14:15:19;7.80;;;5.30;;
32393;SDS011;18853;45.426;9.206;2023-09-08T14:17:44;7.82;;;5.30;;
32393;SDS011;18853;45.426;9.206;2023-09-08T14:20:10;9.35;;;5.70;;
32393;SDS011;18853;45.426;9.206;2023-09-08T14:22:36;12.02;;;5.07;;
32393;SDS011;18853;45.426;9.206;2023-09-08T14:25:03;9.05;;;5.28;;
32393;SDS011;18853;45.426;9.206;2023-09-08T14:27:29;10.52;;;5.43;;
32393;SDS011;18853;45.426;9.206;2023-09-08T14:29:55;12.50;;;5.03;;
32393;SDS011;18853;45.426;9.206;2023-09-08T14:32:21;6.55;;;5.22;;
32393;SDS011;18853;45.426;9.206;2023-09-08T14:34:48;9.68;;;5.43;;
32393;SDS011;18853;45.426;9.206;2023-09-08T14:37:14;8.90;;;4.88;;
32393;SDS011;18853;45.426;9.206;2023-09-08T14:39:40;8.35;;;5.10;;
32393;SDS011;18853;45.426;9.206;2023-09-08T14:42:05;7.53;;;4.90;;
32393;SDS011;18853;45.426;9.206;2023-09-08T14:44:31;8.32;;;5.05;;
32393;SDS011;18853;45.426;9.206;2023-09-08T14:46:57;11.07;;;5.45;;
32393;SDS011;18853;45.426;9.206;2023-09-08T14:49:22;6.57;;;4.82;;